Time;durP1;ratioP1;P1;durP2;ratioP2;P2;SDS_P1;SDS_P2;PMS_P1;PMS_P2;Temp;Humidity;BMP_temperature;BMP_pressure;BME280_temperature;BME280_humidity;BME280_pressure;Samples;Min_cycle;Max_cycle;Signal;HPM_P1;HPM_P2
2022/07/21 00:01:09;;;;;;;9.73;7.90;;;;;;;;;;4910726;29;20254;-86
2022/07/21 00:03:36;;;;;;;10.20;8.35;;;;;;;;;;4929489;29;20234;-84
2022/07/21 00:06:03;;;;;;;9.93;7.60;;;;;;;;;;4913881;29;20235;-84
2022/07/21 00:08:28;;;;;;;9.32;8.02;;;;;;;;;;4921243;29;20262;-84
2022/07/21 00:10:59;;;;;;;11.00;8.43;;;;;;;;;;4912295;29;20218;-83
2022/07/21 00:13:24;;;;;;;10.15;7.32;;;;;;;;;;4920773;29;20306;-85
2022/07/21 00:15:50;;;;;;;10.70;8.15;;;;;;;;;;4916028;29;20246;-85
2022/07/21 00:18:18;;;;;;;10.52;7.88;;;;;;;;;;4924943;28;20243;-85
2022/07/21 00:20:45;;;;;;;9.65;7.97;;;;;;;;;;4933199;29;20306;-86
2022/07/21 00:23:18;;;;;;;9.55;8.45;;;;;;;;;;4954444;29;20322;-83
2022/07/21 00:25:44;;;;;;;11.20;8.43;;;;;;;;;;4929137;29;20233;-85
2022/07/21 00:28:14;;;;;;;11.95;8.40;;;;;;;;;;4924360;29;20219;-85
2022/07/21 00:30:40;;;;;;;11.43;9.15;;;;;;;;;;4955895;29;20696;-84
2022/07/21 00:33:08;;;;;;;11.18;8.93;;;;;;;;;;4954658;28;20227;-86
2022/07/21 00:35:34;;;;;;;9.60;8.35;;;;;;;;;;4940876;29;20215;-83
2022/07/21 00:37:59;;;;;;;10.45;8.70;;;;;;;;;;4909342;29;20237;-86
2022/07/21 00:40:25;;;;;;;11.10;8.50;;;;;;;;;;4922386;28;20223;-85
2022/07/21 00:42:51;;;;;;;11.20;8.80;;;;;;;;;;4924230;29;20718;-86
2022/07/21 00:45:18;;;;;;;9.88;8.60;;;;;;;;;;4924444;29;20223;-84
2022/07/21 00:47:46;;;;;;;12.32;8.90;;;;;;;;;;4925355;29;20238;-83
2022/07/21 00:50:15;;;;;;;10.63;8.40;;;;;;;;;;4926106;28;20247;-81
2022/07/21 00:52:41;;;;;;;11.52;8.63;;;;;;;;;;4929920;29;20253;-85
2022/07/21 00:55:15;;;;;;;13.75;8.93;;;;;;;;;;4943136;28;20223;-83
2022/07/21 00:57:40;;;;;;;14.15;8.57;;;;;;;;;;4924027;29;20646;-83
2022/07/21 01:00:09;;;;;;;15.65;9.10;;;;;;;;;;4924044;28;20222;-84
2022/07/21 01:02:36;;;;;;;15.23;8.75;;;;;;;;;;4897562;29;20309;-86
2022/07/21 01:05:06;;;;;;;11.60;8.35;;;;;;;;;;4964003;28;20227;-86
2022/07/21 01:07:32;;;;;;;9.35;7.82;;;;;;;;;;4927512;29;20238;-83
2022/07/21 01:09:57;;;;;;;8.98;7.90;;;;;;;;;;4928700;28;20215;-84
2022/07/21 01:12:23;;;;;;;10.50;7.93;;;;;;;;;;4920047;29;20680;-84
2022/07/21 01:14:51;;;;;;;13.48;7.95;;;;;;;;;;4915372;29;20230;-84
2022/07/21 01:17:16;;;;;;;10.20;7.45;;;;;;;;;;4923061;28;20223;-85
2022/07/21 01:19:44;;;;;;;10.88;7.72;;;;;;;;;;4908734;29;20223;-84
2022/07/21 01:22:14;;;;;;;8.48;7.00;;;;;;;;;;4937519;28;20234;-83
2022/07/21 01:24:42;;;;;;;9.60;7.50;;;;;;;;;;4938409;29;20219;-83
2022/07/21 01:27:08;;;;;;;10.77;7.32;;;;;;;;;;4902143;28;20238;-84
2022/07/21 01:29:35;;;;;;;9.68;7.57;;;;;;;;;;4908552;29;20230;-86
2022/07/21 01:32:04;;;;;;;8.55;7.65;;;;;;;;;;4936905;28;20243;-84
2022/07/21 01:34:29;;;;;;;9.07;7.07;;;;;;;;;;4919296;29;20719;-83
2022/07/21 01:36:55;;;;;;;9.45;7.43;;;;;;;;;;4935314;29;20270;-84
2022/07/21 01:42:07;;;;;;;10.32;7.50;;;;;;;;;;4938645;28;20231;-85
2022/07/21 01:44:33;;;;;;;11.05;7.15;;;;;;;;;;4908241;29;20696;-85
2022/07/21 01:47:01;;;;;;;9.20;7.03;;;;;;;;;;4924214;28;20227;-82
2022/07/21 01:49:26;;;;;;;8.65;6.85;;;;;;;;;;4930826;28;20267;-82
2022/07/21 01:51:54;;;;;;;10.52;6.57;;;;;;;;;;4907595;29;20227;-84
2022/07/21 01:54:20;;;;;;;8.65;6.63;;;;;;;;;;4924857;28;20281;-86
2022/07/21 01:56:45;;;;;;;13.65;6.93;;;;;;;;;;4922151;29;20605;-86
2022/07/21 01:59:11;;;;;;;9.85;5.78;;;;;;;;;;4921805;28;20227;-84
2022/07/21 02:01:36;;;;;;;8.88;5.95;;;;;;;;;;4918752;28;20222;-85
2022/07/21 02:04:03;;;;;;;7.43;5.97;;;;;;;;;;4936318;28;20237;-83
2022/07/21 02:06:29;;;;;;;7.03;5.63;;;;;;;;;;4938041;29;20226;-86
2022/07/21 02:08:54;;;;;;;8.98;5.55;;;;;;;;;;4907498;29;20234;-85
2022/07/21 02:11:25;;;;;;;11.60;5.70;;;;;;;;;;4952551;28;20223;-85
2022/07/21 02:13:51;;;;;;;8.77;5.80;;;;;;;;;;4918967;29;20274;-85
2022/07/21 02:16:16;;;;;;;10.88;5.60;;;;;;;;;;4957459;28;20251;-86
2022/07/21 02:18:43;;;;;;;9.63;5.50;;;;;;;;;;4908501;29;20306;-86
2022/07/21 02:21:09;;;;;;;6.90;5.45;;;;;;;;;;4922921;28;20282;-84
2022/07/21 02:23:34;;;;;;;7.22;5.13;;;;;;;;;;4933107;29;20309;-86
2022/07/21 02:26:00;;;;;;;10.30;5.50;;;;;;;;;;4924429;29;20719;-85
2022/07/21 02:28:26;;;;;;;10.27;5.40;;;;;;;;;;4923436;28;20696;-85
2022/07/21 02:30:54;;;;;;;8.68;5.45;;;;;;;;;;4926176;29;20223;-84
2022/07/21 02:33:20;;;;;;;7.57;5.70;;;;;;;;;;4941236;28;20222;-86
2022/07/21 02:35:48;;;;;;;10.35;5.22;;;;;;;;;;4957104;29;20245;-85
2022/07/21 02:38:19;;;;;;;9.38;5.90;;;;;;;;;;4940641;28;20230;-86
2022/07/21 02:40:47;;;;;;;9.00;5.75;;;;;;;;;;4925633;29;20227;-86
2022/07/21 02:43:15;;;;;;;9.82;5.47;;;;;;;;;;4919573;29;20228;-83
2022/07/21 02:45:43;;;;;;;7.13;5.28;;;;;;;;;;4934277;29;20231;-85
2022/07/21 02:48:10;;;;;;;9.07;5.60;;;;;;;;;;4940241;28;20278;-85
2022/07/21 02:50:40;;;;;;;9.65;5.78;;;;;;;;;;4925278;29;20225;-85
2022/07/21 02:53:08;;;;;;;9.02;5.88;;;;;;;;;;4939776;28;20231;-85
2022/07/21 02:55:34;;;;;;;8.68;5.85;;;;;;;;;;4913065;29;20314;-87
2022/07/21 02:58:07;;;;;;;9.30;5.47;;;;;;;;;;4926371;29;20231;-86
2022/07/21 03:00:34;;;;;;;11.85;5.93;;;;;;;;;;4926135;29;20310;-85
2022/07/21 03:03:00;;;;;;;8.55;5.82;;;;;;;;;;4921656;29;20442;-87
2022/07/21 03:05:28;;;;;;;9.52;5.15;;;;;;;;;;4925390;28;20286;-85
2022/07/21 03:07:53;;;;;;;8.40;5.15;;;;;;;;;;4926591;29;20241;-87
2022/07/21 03:10:19;;;;;;;7.78;5.15;;;;;;;;;;4925664;29;20223;-85
2022/07/21 03:12:49;;;;;;;12.05;5.15;;;;;;;;;;4940792;29;20222;-82
2022/07/21 03:15:15;;;;;;;7.22;4.97;;;;;;;;;;4931605;28;20246;-85
2022/07/21 03:17:40;;;;;;;7.05;4.55;;;;;;;;;;4931095;29;20759;-87
2022/07/21 03:20:08;;;;;;;8.18;4.80;;;;;;;;;;4925931;28;20218;-85
2022/07/21 03:22:34;;;;;;;8.05;4.55;;;;;;;;;;4913881;29;20230;-86
2022/07/21 03:25:02;;;;;;;7.20;4.72;;;;;;;;;;4953781;29;20235;-85
2022/07/21 03:27:35;;;;;;;8.77;4.53;;;;;;;;;;4919017;29;20215;-86
2022/07/21 03:30:06;;;;;;;8.13;4.40;;;;;;;;;;4925522;29;20227;-85
2022/07/21 03:32:32;;;;;;;8.15;4.18;;;;;;;;;;4905808;29;20223;-87
2022/07/21 03:34:57;;;;;;;7.45;4.10;;;;;;;;;;4925779;29;20285;-86
2022/07/21 03:37:23;;;;;;;10.98;4.65;;;;;;;;;;4916183;29;20681;-88
2022/07/21 03:39:51;;;;;;;8.38;4.43;;;;;;;;;;4937238;29;20281;-85
2022/07/21 03:42:21;;;;;;;5.55;4.18;;;;;;;;;;4924229;28;20302;-86
2022/07/21 03:44:47;;;;;;;6.70;3.55;;;;;;;;;;4927050;29;20255;-84
2022/07/21 03:47:13;;;;;;;7.30;3.97;;;;;;;;;;4932648;28;20227;-88
2022/07/21 03:49:38;;;;;;;7.40;4.28;;;;;;;;;;4927102;28;20230;-83
2022/07/21 03:52:04;;;;;;;8.13;3.92;;;;;;;;;;4921626;29;20230;-80
2022/07/21 03:54:29;;;;;;;7.20;3.80;;;;;;;;;;4933606;29;20913;-82
2022/07/21 03:56:55;;;;;;;5.55;3.80;;;;;;;;;;4932087;29;20231;-81
2022/07/21 03:59:20;;;;;;;7.63;4.20;;;;;;;;;;4918112;28;20689;-81
2022/07/21 04:01:46;;;;;;;9.00;3.80;;;;;;;;;;4948586;29;20234;-79
2022/07/21 04:04:12;;;;;;;8.27;4.50;;;;;;;;;;4947318;28;20311;-81
2022/07/21 04:06:37;;;;;;;7.60;3.70;;;;;;;;;;4914917;29;20315;-83
2022/07/21 04:09:03;;;;;;;8.63;4.18;;;;;;;;;;4921955;28;20245;-83
2022/07/21 04:11:30;;;;;;;7.18;4.22;;;;;;;;;;4928667;29;20277;-79
2022/07/21 04:13:55;;;;;;;8.98;4.70;;;;;;;;;;4932851;28;20234;-82
2022/07/21 04:16:21;;;;;;;5.70;3.80;;;;;;;;;;4939663;28;20226;-80
2022/07/21 04:18:47;;;;;;;5.15;3.78;;;;;;;;;;4929793;29;20230;-83
2022/07/21 04:21:18;;;;;;;9.32;4.55;;;;;;;;;;4924071;28;20219;-82
2022/07/21 04:23:43;;;;;;;9.50;4.88;;;;;;;;;;4945793;29;20247;-82
2022/07/21 04:26:09;;;;;;;6.75;4.32;;;;;;;;;;4942973;29;20237;-82
2022/07/21 04:28:34;;;;;;;6.15;4.55;;;;;;;;;;4943760;29;20219;-81
2022/07/21 04:31:00;;;;;;;9.93;4.90;;;;;;;;;;4933375;28;20289;-81
2022/07/21 04:33:25;;;;;;;6.38;4.10;;;;;;;;;;4963661;28;20235;-83
2022/07/21 04:35:52;;;;;;;8.63;4.75;;;;;;;;;;4945122;29;20231;-82
2022/07/21 04:38:18;;;;;;;9.18;5.10;;;;;;;;;;4928166;29;20755;-82
2022/07/21 04:40:44;;;;;;;11.00;4.63;;;;;;;;;;4917117;29;20589;-85
2022/07/21 04:43:09;;;;;;;7.90;5.03;;;;;;;;;;4929995;28;20222;-83
2022/07/21 04:45:35;;;;;;;7.57;4.50;;;;;;;;;;4918086;29;20223;-83
2022/07/21 04:48:03;;;;;;;8.82;4.97;;;;;;;;;;4916343;29;20283;-86
2022/07/21 04:50:29;;;;;;;10.07;5.13;;;;;;;;;;4931433;29;20223;-80
2022/07/21 04:52:55;;;;;;;7.35;4.80;;;;;;;;;;4963784;28;20874;-82
2022/07/21 04:55:20;;;;;;;6.78;4.53;;;;;;;;;;4928217;28;20225;-83
2022/07/21 04:57:51;;;;;;;7.22;4.88;;;;;;;;;;4959452;28;20227;-83
2022/07/21 05:00:18;;;;;;;8.27;4.70;;;;;;;;;;4940243;28;20235;-84
2022/07/21 05:02:47;;;;;;;6.95;4.85;;;;;;;;;;4924974;29;20315;-83
2022/07/21 05:05:13;;;;;;;8.30;4.80;;;;;;;;;;4919605;28;20210;-84
2022/07/21 05:07:38;;;;;;;8.98;5.20;;;;;;;;;;4931307;29;20298;-84
2022/07/21 05:10:08;;;;;;;8.63;5.13;;;;;;;;;;4944148;28;20227;-83
2022/07/21 05:12:33;;;;;;;5.63;4.65;;;;;;;;;;4939365;29;20231;-83
2022/07/21 05:15:01;;;;;;;6.40;5.13;;;;;;;;;;4943326;28;20226;-82
2022/07/21 05:17:27;;;;;;;8.93;5.13;;;;;;;;;;4911008;29;20225;-82
2022/07/21 05:19:52;;;;;;;9.77;5.35;;;;;;;;;;4955257;28;20728;-82
2022/07/21 05:22:18;;;;;;;7.60;5.20;;;;;;;;;;4923779;29;20224;-83
2022/07/21 05:24:43;;;;;;;9.70;5.40;;;;;;;;;;4959700;28;20227;-82
2022/07/21 05:27:09;;;;;;;9.13;5.13;;;;;;;;;;4927820;28;20227;-82
2022/07/21 05:29:36;;;;;;;9.32;5.70;;;;;;;;;;4941999;28;20704;-82
2022/07/21 05:32:02;;;;;;;10.32;5.30;;;;;;;;;;4941576;29;20617;-81
2022/07/21 05:34:28;;;;;;;10.48;5.28;;;;;;;;;;4944724;29;20222;-82
2022/07/21 05:36:54;;;;;;;9.25;6.10;;;;;;;;;;4911057;29;20787;-83
2022/07/21 05:39:19;;;;;;;13.55;6.85;;;;;;;;;;4959284;28;20228;-84
2022/07/21 05:41:45;;;;;;;11.60;6.72;;;;;;;;;;4913662;29;20277;-84
2022/07/21 05:44:13;;;;;;;11.77;6.65;;;;;;;;;;4930023;28;20234;-83
2022/07/21 05:46:38;;;;;;;12.48;7.70;;;;;;;;;;4929429;29;20257;-83
2022/07/21 05:49:04;;;;;;;9.65;6.40;;;;;;;;;;4921646;28;20743;-80
2022/07/21 05:51:32;;;;;;;11.02;7.55;;;;;;;;;;4941259;29;20223;-82
2022/07/21 05:53:57;;;;;;;13.60;7.90;;;;;;;;;;4958251;28;20243;-80
2022/07/21 05:56:23;;;;;;;12.80;8.13;;;;;;;;;;4934360;28;20230;-83
2022/07/21 05:58:49;;;;;;;10.98;7.78;;;;;;;;;;4946565;28;20266;-84
2022/07/21 06:01:17;;;;;;;12.38;7.18;;;;;;;;;;4935074;28;20254;-83
2022/07/21 06:03:46;;;;;;;10.63;7.68;;;;;;;;;;4950634;29;20235;-84
2022/07/21 06:06:18;;;;;;;13.30;8.48;;;;;;;;;;4930076;28;20225;-84
2022/07/21 06:08:45;;;;;;;13.27;8.55;;;;;;;;;;4952867;28;20231;-83
2022/07/21 06:11:12;;;;;;;11.15;8.25;;;;;;;;;;4928170;28;20236;-82
2022/07/21 06:13:38;;;;;;;10.52;8.38;;;;;;;;;;4928974;29;20238;-83
2022/07/21 06:16:06;;;;;;;9.90;8.27;;;;;;;;;;4959333;28;20872;-82
2022/07/21 06:18:32;;;;;;;11.35;7.97;;;;;;;;;;4915157;29;20305;-84
2022/07/21 06:20:57;;;;;;;12.82;8.55;;;;;;;;;;4926531;29;20723;-85
2022/07/21 06:23:23;;;;;;;14.30;8.98;;;;;;;;;;4925358;28;20223;-82
2022/07/21 06:25:51;;;;;;;12.15;9.48;;;;;;;;;;4942440;29;20317;-82
2022/07/21 06:28:17;;;;;;;12.32;8.57;;;;;;;;;;4958723;28;20230;-83
2022/07/21 06:30:42;;;;;;;14.50;8.93;;;;;;;;;;4927458;29;20223;-85
2022/07/21 06:33:08;;;;;;;11.55;8.80;;;;;;;;;;4928355;28;20333;-83
2022/07/21 06:35:36;;;;;;;14.63;9.25;;;;;;;;;;4934398;29;20219;-82
2022/07/21 06:38:04;;;;;;;10.70;9.05;;;;;;;;;;4932798;29;20230;-84
2022/07/21 06:40:29;;;;;;;12.63;8.80;;;;;;;;;;4945731;29;20222;-84
2022/07/21 06:42:55;;;;;;;9.82;8.75;;;;;;;;;;4959408;28;20295;-84
2022/07/21 06:45:21;;;;;;;11.65;8.80;;;;;;;;;;4940704;28;20242;-82
2022/07/21 06:47:47;;;;;;;14.60;9.32;;;;;;;;;;4920986;29;20218;-81
2022/07/21 06:50:12;;;;;;;11.65;9.57;;;;;;;;;;4925659;28;20691;-82
2022/07/21 06:52:38;;;;;;;10.25;9.05;;;;;;;;;;4924823;29;20235;-81
2022/07/21 06:55:04;;;;;;;12.07;9.13;;;;;;;;;;4924642;29;20237;-81
2022/07/21 06:57:30;;;;;;;12.82;9.48;;;;;;;;;;4959259;28;20219;-82
2022/07/21 06:59:56;;;;;;;13.90;9.50;;;;;;;;;;4942468;29;20229;-80
2022/07/21 07:02:24;;;;;;;15.52;9.68;;;;;;;;;;4922758;29;20227;-82
2022/07/21 07:04:49;;;;;;;15.30;9.80;;;;;;;;;;4956676;29;20238;-84
2022/07/21 07:07:17;;;;;;;13.23;9.27;;;;;;;;;;4940127;29;20222;-80
2022/07/21 07:09:43;;;;;;;12.80;9.27;;;;;;;;;;4941764;29;20257;-84
2022/07/21 07:12:09;;;;;;;11.43;9.80;;;;;;;;;;4926211;28;20594;-82
2022/07/21 07:14:35;;;;;;;12.68;10.45;;;;;;;;;;4910402;29;20298;-85
2022/07/21 07:17:00;;;;;;;11.50;10.30;;;;;;;;;;4911260;29;20230;-87
2022/07/21 07:19:29;;;;;;;14.00;9.98;;;;;;;;;;4917769;28;20211;-84
2022/07/21 07:21:55;;;;;;;12.50;10.32;;;;;;;;;;4924739;29;20232;-84
2022/07/21 07:24:25;;;;;;;12.55;10.55;;;;;;;;;;4909721;29;20587;-82
2022/07/21 07:26:53;;;;;;;12.15;10.25;;;;;;;;;;4956087;28;20242;-83
2022/07/21 07:29:21;;;;;;;16.73;10.60;;;;;;;;;;4927228;28;20318;-83
2022/07/21 07:31:47;;;;;;;12.13;10.93;;;;;;;;;;4959024;28;20223;-82
2022/07/21 07:34:12;;;;;;;14.05;10.65;;;;;;;;;;4915772;28;20246;-82
2022/07/21 07:36:43;;;;;;;15.63;10.93;;;;;;;;;;4944716;29;20222;-82
2022/07/21 07:39:08;;;;;;;11.68;10.48;;;;;;;;;;4946604;28;20266;-85
2022/07/21 07:41:34;;;;;;;16.65;12.20;;;;;;;;;;4937155;29;20238;-83
2022/07/21 07:43:59;;;;;;;11.73;10.43;;;;;;;;;;4909180;29;20512;-83
2022/07/21 07:46:25;;;;;;;12.25;10.38;;;;;;;;;;4927958;28;20214;-81
2022/07/21 07:48:51;;;;;;;10.80;9.65;;;;;;;;;;4949572;29;20250;-84
2022/07/21 07:51:19;;;;;;;12.23;9.70;;;;;;;;;;4929373;29;20696;-83
2022/07/21 07:53:45;;;;;;;11.80;9.70;;;;;;;;;;4934147;29;20310;-80
2022/07/21 07:56:10;;;;;;;10.85;8.63;;;;;;;;;;4950935;28;20226;-81
2022/07/21 07:58:38;;;;;;;11.52;8.50;;;;;;;;;;4935576;29;20230;-82
2022/07/21 08:01:05;;;;;;;8.90;8.10;;;;;;;;;;4936874;28;20235;-82
2022/07/21 08:03:31;;;;;;;10.23;7.88;;;;;;;;;;4932568;29;20230;-80
2022/07/21 08:05:59;;;;;;;10.15;8.15;;;;;;;;;;4965538;28;20222;-81
2022/07/21 08:08:27;;;;;;;15.07;8.85;;;;;;;;;;4949581;29;20238;-82
2022/07/21 08:10:55;;;;;;;8.85;7.95;;;;;;;;;;4928544;29;20230;-83
2022/07/21 08:13:23;;;;;;;6.10;5.50;;;;;;;;;;4934261;28;20231;-84
2022/07/21 08:15:49;;;;;;;6.88;6.07;;;;;;;;;;4923431;29;20268;-83
2022/07/21 08:18:15;;;;;;;5.88;5.28;;;;;;;;;;4951020;28;20315;-82
2022/07/21 08:20:43;;;;;;;5.43;4.93;;;;;;;;;;4951480;29;20223;-83
2022/07/21 08:23:09;;;;;;;6.50;5.45;;;;;;;;;;4927297;28;20719;-84
2022/07/21 08:25:37;;;;;;;5.47;4.93;;;;;;;;;;4951957;29;20219;-85
2022/07/21 08:28:03;;;;;;;5.43;4.88;;;;;;;;;;4952798;28;20230;-83
2022/07/21 08:30:28;;;;;;;5.93;4.97;;;;;;;;;;4958055;29;20227;-84
2022/07/21 08:32:54;;;;;;;5.88;5.30;;;;;;;;;;4955306;28;20325;-80
2022/07/21 08:35:19;;;;;;;6.88;4.70;;;;;;;;;;4944046;28;20222;-83
2022/07/21 08:37:56;;;;;;;6.80;5.10;;;;;;;;;;4937589;29;20262;-79
2022/07/21 08:40:23;;;;;;;5.88;4.60;;;;;;;;;;4931942;28;20882;-84
2022/07/21 08:42:49;;;;;;;6.68;4.70;;;;;;;;;;4917211;29;20239;-82
2022/07/21 08:45:14;;;;;;;4.95;4.35;;;;;;;;;;4933790;29;20221;-82
2022/07/21 08:47:40;;;;;;;5.97;4.70;;;;;;;;;;4967070;29;20233;-83
2022/07/21 08:50:07;;;;;;;4.90;4.40;;;;;;;;;;4967141;28;20222;-86
2022/07/21 08:52:35;;;;;;;4.93;4.43;;;;;;;;;;4946642;29;20234;-81
2022/07/21 08:55:00;;;;;;;5.70;4.65;;;;;;;;;;4946261;28;20241;-81
2022/07/21 08:57:26;;;;;;;6.22;4.40;;;;;;;;;;4944916;29;20218;-84
2022/07/21 08:59:53;;;;;;;4.78;4.18;;;;;;;;;;4965424;29;20230;-87
2022/07/21 09:02:31;;;;;;;6.55;3.75;;;;;;;;;;4962537;28;20237;-84
2022/07/21 09:04:57;;;;;;;6.03;3.55;;;;;;;;;;4926560;29;20234;-81
2022/07/21 09:07:23;;;;;;;5.82;3.88;;;;;;;;;;4921453;28;20218;-82
2022/07/21 09:10:02;;;;;;;4.32;3.92;;;;;;;;;;4944128;29;20787;-84
2022/07/21 09:12:28;;;;;;;5.05;3.92;;;;;;;;;;4944076;28;20290;-84
2022/07/21 09:15:13;;;;;;;5.22;4.28;;;;;;;;;;4903147;29;20266;-85
2022/07/21 09:17:41;;;;;;;5.10;4.30;;;;;;;;;;4927415;29;20235;-87
2022/07/21 09:20:25;;;;;;;14.80;6.07;;;;;;;;;;4931710;28;20242;-83
2022/07/21 09:23:10;;;;;;;6.22;4.75;;;;;;;;;;4915728;29;20242;-84
2022/07/21 09:25:46;;;;;;;5.78;5.03;;;;;;;;;;4928030;29;20275;-81
2022/07/21 09:28:21;;;;;;;5.55;4.75;;;;;;;;;;4941043;28;20230;-81
2022/07/21 09:30:57;;;;;;;6.03;4.70;;;;;;;;;;4942520;29;20234;-83
2022/07/21 09:36:38;;;;;;;6.00;4.95;;;;;;;;;;4958550;28;20632;-84
2022/07/21 09:39:03;;;;;;;5.85;4.57;;;;;;;;;;4973502;28;20222;-82
2022/07/21 09:41:31;;;;;;;4.82;4.38;;;;;;;;;;4908830;29;20649;-80
2022/07/21 09:43:59;;;;;;;7.40;5.53;;;;;;;;;;4916192;29;20710;-81
2022/07/21 09:46:29;;;;;;;6.47;5.05;;;;;;;;;;4953669;28;20226;-80
2022/07/21 09:48:56;;;;;;;6.82;5.00;;;;;;;;;;4945165;29;20230;-82
2022/07/21 09:51:22;;;;;;;7.00;4.97;;;;;;;;;;4926120;28;20238;-81
2022/07/21 09:53:48;;;;;;;6.75;4.97;;;;;;;;;;4928482;29;20235;-81
2022/07/21 09:56:13;;;;;;;6.25;4.85;;;;;;;;;;4942955;29;20291;-82
2022/07/21 09:58:40;;;;;;;5.05;4.55;;;;;;;;;;4926046;29;20242;-81
2022/07/21 10:01:08;;;;;;;10.02;5.15;;;;;;;;;;4946243;28;20222;-82
2022/07/21 10:03:34;;;;;;;6.72;5.25;;;;;;;;;;4962116;29;20226;-83
2022/07/21 10:06:00;;;;;;;4.95;4.55;;;;;;;;;;4929036;29;20227;-86
2022/07/21 10:08:25;;;;;;;8.40;4.97;;;;;;;;;;4941181;28;20250;-80
2022/07/21 10:10:53;;;;;;;7.05;5.07;;;;;;;;;;4932912;29;20222;-83
2022/07/21 10:13:19;;;;;;;7.15;5.40;;;;;;;;;;4935689;28;20225;-83
2022/07/21 10:15:48;;;;;;;6.95;5.65;;;;;;;;;;4919041;28;20229;-81
2022/07/21 10:18:14;;;;;;;6.40;5.05;;;;;;;;;;4930089;29;20233;-82
2022/07/21 10:20:40;;;;;;;6.15;5.38;;;;;;;;;;4961836;28;20234;-82
2022/07/21 10:23:07;;;;;;;7.18;5.20;;;;;;;;;;4927006;29;20223;-82
2022/07/21 10:25:33;;;;;;;8.25;5.35;;;;;;;;;;4921377;29;20296;-81
2022/07/21 10:28:10;;;;;;;6.72;4.30;;;;;;;;;;4929553;29;20268;-82
2022/07/21 10:30:44;;;;;;;4.95;4.43;;;;;;;;;;4956569;29;20226;-82
2022/07/21 10:33:12;;;;;;;5.78;4.30;;;;;;;;;;4936466;29;20228;-81
2022/07/21 10:35:44;;;;;;;5.82;4.30;;;;;;;;;;4959454;29;20254;-83
2022/07/21 10:38:28;;;;;;;6.55;4.63;;;;;;;;;;4957034;28;20262;-80
2022/07/21 10:40:56;;;;;;;5.35;4.30;;;;;;;;;;4938709;29;20233;-80
2022/07/21 10:43:24;;;;;;;6.18;4.25;;;;;;;;;;4927031;28;20223;-80
2022/07/21 10:45:50;;;;;;;5.28;3.70;;;;;;;;;;4940019;29;20231;-85
2022/07/21 10:48:37;;;;;;;4.75;3.67;;;;;;;;;;4927379;29;20226;-82
2022/07/21 10:51:09;;;;;;;5.85;3.90;;;;;;;;;;4931027;29;20218;-82
2022/07/21 10:53:35;;;;;;;5.68;3.88;;;;;;;;;;4957990;29;20234;-83
2022/07/21 10:56:01;;;;;;;3.85;3.55;;;;;;;;;;4910414;29;20234;-79
2022/07/21 10:58:27;;;;;;;4.18;3.50;;;;;;;;;;4924445;28;20626;-83
2022/07/21 11:01:05;;;;;;;5.22;3.60;;;;;;;;;;4931008;28;20222;-83
2022/07/21 11:03:38;;;;;;;3.75;3.20;;;;;;;;;;4943112;29;20607;-81
2022/07/21 11:06:37;;;;;;;3.08;2.78;;;;;;;;;;4934672;28;20238;-81
2022/07/21 11:09:02;;;;;;;3.15;2.50;;;;;;;;;;4878983;29;20238;-81
2022/07/21 11:11:29;;;;;;;2.65;2.30;;;;;;;;;;4954312;29;20230;-81
2022/07/21 11:14:08;;;;;;;2.03;1.90;;;;;;;;;;4907843;29;20242;-81
2022/07/21 11:17:02;;;;;;;1.65;1.50;;;;;;;;;;4942720;29;20261;-80
2022/07/21 11:19:49;;;;;;;1.20;1.10;;;;;;;;;;4942000;29;20273;-81
2022/07/21 11:22:20;;;;;;;1.58;1.30;;;;;;;;;;4943217;29;20254;-80
2022/07/21 11:24:51;;;;;;;0.90;0.90;;;;;;;;;;4964730;28;20230;-85
2022/07/21 11:27:18;;;;;;;1.15;1.10;;;;;;;;;;4948529;28;20266;-83
2022/07/21 11:29:47;;;;;;;1.25;1.02;;;;;;;;;;4923672;29;20964;-80
2022/07/21 11:32:13;;;;;;;1.55;1.10;;;;;;;;;;4927737;28;20704;-80
2022/07/21 11:34:42;;;;;;;1.45;1.30;;;;;;;;;;4932838;29;20258;-83
2022/07/21 11:37:08;;;;;;;1.13;0.98;;;;;;;;;;4964942;28;20223;-80
2022/07/21 11:39:35;;;;;;;1.33;1.33;;;;;;;;;;4931002;29;20278;-78
2022/07/21 11:42:09;;;;;;;1.35;1.25;;;;;;;;;;4948850;29;20247;-80
2022/07/21 11:44:34;;;;;;;2.00;1.30;;;;;;;;;;4916246;29;20227;-82
2022/07/21 11:47:04;;;;;;;1.10;1.10;;;;;;;;;;4937336;29;20254;-83
2022/07/21 11:49:31;;;;;;;1.25;1.25;;;;;;;;;;4954231;29;20219;-85
2022/07/21 11:52:00;;;;;;;1.30;1.20;;;;;;;;;;4953293;29;20253;-81
2022/07/21 11:54:32;;;;;;;1.30;1.17;;;;;;;;;;4916624;29;20321;-83
2022/07/21 11:56:58;;;;;;;1.30;1.17;;;;;;;;;;4943969;29;20760;-82
2022/07/21 11:59:26;;;;;;;1.13;1.13;;;;;;;;;;4943464;29;20248;-84
2022/07/21 12:01:58;;;;;;;1.40;1.30;;;;;;;;;;4931221;29;20235;-83
2022/07/21 12:04:34;;;;;;;1.38;1.27;;;;;;;;;;4935032;29;20250;-82
2022/07/21 12:07:00;;;;;;;1.25;1.15;;;;;;;;;;4964567;28;20230;-81
2022/07/21 12:09:25;;;;;;;1.35;1.25;;;;;;;;;;4945385;29;20239;-81
2022/07/21 12:11:51;;;;;;;1.60;1.50;;;;;;;;;;4915152;29;20257;-81
2022/07/21 12:14:16;;;;;;;1.65;1.55;;;;;;;;;;4927578;29;20243;-84
2022/07/21 12:16:52;;;;;;;1.67;1.58;;;;;;;;;;4912491;29;20223;-82
2022/07/21 12:19:18;;;;;;;1.60;1.50;;;;;;;;;;4918062;28;20214;-81
2022/07/21 12:21:49;;;;;;;1.40;1.30;;;;;;;;;;4946331;29;20303;-83
2022/07/21 12:24:15;;;;;;;2.33;1.70;;;;;;;;;;4942605;28;20230;-85
2022/07/21 12:26:40;;;;;;;1.90;1.80;;;;;;;;;;4926800;29;20219;-82
2022/07/21 12:29:06;;;;;;;1.92;1.83;;;;;;;;;;4940486;28;20226;-82
2022/07/21 12:31:35;;;;;;;2.30;2.20;;;;;;;;;;4924673;29;20633;-83
2022/07/21 12:34:14;;;;;;;2.65;1.95;;;;;;;;;;4915801;29;20350;-83
2022/07/21 12:36:41;;;;;;;2.60;2.40;;;;;;;;;;4925888;29;20230;-85
2022/07/21 12:42:10;;;;;;;2.83;2.63;;;;;;;;;;4940965;29;20703;-83
2022/07/21 12:44:36;;;;;;;2.67;2.47;;;;;;;;;;4913409;29;20283;-81
2022/07/21 12:47:15;;;;;;;2.75;2.55;;;;;;;;;;4929068;28;20239;-81
2022/07/21 12:50:13;;;;;;;3.33;3.03;;;;;;;;;;4964102;28;20222;-80
2022/07/21 12:52:41;;;;;;;3.28;3.08;;;;;;;;;;4933876;29;20243;-83
2022/07/21 12:55:09;;;;;;;3.22;2.90;;;;;;;;;;4951171;28;20330;-81
2022/07/21 12:57:34;;;;;;;3.40;3.10;;;;;;;;;;4945273;29;20238;-84
2022/07/21 13:00:03;;;;;;;3.50;3.20;;;;;;;;;;4914607;29;20227;-83
2022/07/21 13:02:30;;;;;;;3.47;3.20;;;;;;;;;;4947071;28;20233;-81
2022/07/21 13:04:58;;;;;;;3.20;3.00;;;;;;;;;;4961867;28;20318;-78
2022/07/21 13:07:26;;;;;;;3.30;3.10;;;;;;;;;;4966605;28;20223;-82
2022/07/21 13:09:52;;;;;;;3.92;3.63;;;;;;;;;;4949623;28;20234;-81
2022/07/21 13:12:17;;;;;;;3.72;3.42;;;;;;;;;;4943688;28;20606;-81
2022/07/21 13:14:43;;;;;;;3.35;3.15;;;;;;;;;;4946692;28;20227;-82
2022/07/21 13:17:08;;;;;;;3.70;3.40;;;;;;;;;;4948609;28;20258;-80
2022/07/21 13:19:37;;;;;;;3.90;3.60;;;;;;;;;;4947099;29;20222;-84
2022/07/21 13:22:05;;;;;;;3.80;3.50;;;;;;;;;;4913265;29;20237;-84
2022/07/21 13:24:32;;;;;;;4.10;3.80;;;;;;;;;;4914525;29;20229;-82
2022/07/21 13:26:58;;;;;;;3.80;3.50;;;;;;;;;;4932330;29;20301;-83
2022/07/21 13:29:23;;;;;;;4.05;3.70;;;;;;;;;;4926947;28;20226;-82
2022/07/21 13:31:50;;;;;;;4.13;3.83;;;;;;;;;;4955962;29;20246;-83
2022/07/21 13:34:15;;;;;;;4.22;3.92;;;;;;;;;;4941749;28;20235;-79
2022/07/21 13:36:43;;;;;;;4.35;4.05;;;;;;;;;;4933299;29;20479;-79
2022/07/21 13:39:09;;;;;;;4.75;4.35;;;;;;;;;;4959465;29;20275;-81
2022/07/21 13:41:34;;;;;;;4.57;4.15;;;;;;;;;;4947468;29;20226;-85
2022/07/21 13:44:03;;;;;;;5.10;4.70;;;;;;;;;;4918561;29;20226;-84
2022/07/21 13:46:28;;;;;;;4.95;4.45;;;;;;;;;;4933058;29;20308;-83
2022/07/21 13:48:56;;;;;;;2.83;2.63;;;;;;;;;;4945644;29;20309;-82
2022/07/21 13:51:22;;;;;;;2.92;2.05;;;;;;;;;;4942736;29;20231;-83
2022/07/21 13:53:48;;;;;;;5.20;3.50;;;;;;;;;;4948050;29;20265;-83
2022/07/21 13:56:14;;;;;;;6.28;3.05;;;;;;;;;;4961712;28;20233;-85
2022/07/21 13:58:44;;;;;;;6.60;3.47;;;;;;;;;;4929256;29;20235;-79
2022/07/21 14:01:10;;;;;;;5.68;3.35;;;;;;;;;;4960149;28;20617;-81
2022/07/21 14:03:37;;;;;;;4.15;2.75;;;;;;;;;;4931200;29;20234;-83
2022/07/21 14:06:05;;;;;;;5.10;3.47;;;;;;;;;;4934097;28;20250;-82
2022/07/21 14:08:30;;;;;;;5.20;3.78;;;;;;;;;;4946591;29;20225;-80
2022/07/21 14:10:56;;;;;;;5.38;4.80;;;;;;;;;;4962786;28;20809;-83
2022/07/21 14:13:27;;;;;;;6.95;5.13;;;;;;;;;;4927008;28;20218;-83
2022/07/21 14:15:53;;;;;;;6.55;5.95;;;;;;;;;;4928648;29;20278;-81
2022/07/21 14:18:18;;;;;;;7.40;6.70;;;;;;;;;;4940904;28;20218;-82
2022/07/21 14:20:51;;;;;;;7.38;6.75;;;;;;;;;;4927487;29;20365;-81
2022/07/21 14:23:21;;;;;;;7.95;7.18;;;;;;;;;;4925631;29;20274;-81
2022/07/21 14:25:47;;;;;;;7.68;6.90;;;;;;;;;;4928039;29;20313;-80
2022/07/21 14:28:13;;;;;;;9.85;8.10;;;;;;;;;;4943578;29;20219;-82
2022/07/21 14:30:39;;;;;;;8.80;7.90;;;;;;;;;;4927129;29;20840;-81
2022/07/21 14:33:04;;;;;;;8.90;8.00;;;;;;;;;;4959290;28;20226;-81
2022/07/21 14:35:32;;;;;;;9.20;8.30;;;;;;;;;;4943433;29;20574;-83
2022/07/21 14:37:58;;;;;;;9.68;8.77;;;;;;;;;;4947446;28;20218;-79
2022/07/21 14:40:23;;;;;;;10.43;7.60;;;;;;;;;;4955051;28;20245;-77
2022/07/21 14:42:52;;;;;;;9.25;8.18;;;;;;;;;;4952097;28;20226;-80
2022/07/21 14:45:21;;;;;;;9.40;8.50;;;;;;;;;;4933619;29;20216;-81
2022/07/21 14:47:47;;;;;;;8.57;7.88;;;;;;;;;;4952515;28;20237;-81
2022/07/21 14:50:14;;;;;;;9.63;8.68;;;;;;;;;;4954103;28;20227;-79